sensor_id;sensor_type;location;lat;lon;timestamp;P1;durP1;ratioP1;P2;durP2;ratioP2
23680;SDS011;62915;50.832;4.462;2023-02-07T00:01:08;20.25;;;8.98;;
23680;SDS011;62915;50.832;4.462;2023-02-07T00:03:36;23.10;;;9.63;;
23680;SDS011;62915;50.832;4.462;2023-02-07T00:06:13;20.42;;;9.27;;
23680;SDS011;62915;50.832;4.462;2023-02-07T00:08:40;24.38;;;9.35;;
23680;SDS011;62915;50.832;4.462;2023-02-07T00:11:07;20.20;;;9.38;;
23680;SDS011;62915;50.832;4.462;2023-02-07T00:13:36;23.02;;;10.13;;
23680;SDS011;62915;50.832;4.462;2023-02-07T00:16:03;25.42;;;10.23;;
23680;SDS011;62915;50.832;4.462;2023-02-07T00:18:31;27.55;;;9.57;;
23680;SDS011;62915;50.832;4.462;2023-02-07T00:21:01;19.10;;;10.38;;
23680;SDS011;62915;50.832;4.462;2023-02-07T00:23:29;20.70;;;9.18;;
23680;SDS011;62915;50.832;4.462;2023-02-07T00:25:55;19.85;;;9.27;;
23680;SDS011;62915;50.832;4.462;2023-02-07T00:28:21;23.77;;;9.82;;
23680;SDS011;62915;50.832;4.462;2023-02-07T00:30:46;20.67;;;9.60;;
23680;SDS011;62915;50.832;4.462;2023-02-07T00:33:12;22.73;;;10.30;;
23680;SDS011;62915;50.832;4.462;2023-02-07T00:35:38;24.25;;;9.70;;
23680;SDS011;62915;50.832;4.462;2023-02-07T00:38:04;26.17;;;11.40;;
23680;SDS011;62915;50.832;4.462;2023-02-07T00:40:30;19.70;;;9.45;;
23680;SDS011;62915;50.832;4.462;2023-02-07T00:42:56;21.45;;;10.75;;
23680;SDS011;62915;50.832;4.462;2023-02-07T00:45:22;30.35;;;9.95;;
23680;SDS011;62915;50.832;4.462;2023-02-07T00:47:47;23.17;;;9.80;;
23680;SDS011;62915;50.832;4.462;2023-02-07T00:50:13;24.38;;;10.50;;
23680;SDS011;62915;50.832;4.462;2023-02-07T00:52:39;23.77;;;10.30;;
23680;SDS011;62915;50.832;4.462;2023-02-07T00:55:05;22.95;;;11.10;;
23680;SDS011;62915;50.832;4.462;2023-02-07T00:57:31;20.40;;;10.13;;
23680;SDS011;62915;50.832;4.462;2023-02-07T00:59:57;28.38;;;11.05;;
23680;SDS011;62915;50.832;4.462;2023-02-07T01:02:23;22.10;;;11.02;;
23680;SDS011;62915;50.832;4.462;2023-02-07T01:04:49;21.33;;;10.57;;
23680;SDS011;62915;50.832;4.462;2023-02-07T01:07:15;24.48;;;10.95;;
23680;SDS011;62915;50.832;4.462;2023-02-07T01:09:41;25.08;;;10.65;;
23680;SDS011;62915;50.832;4.462;2023-02-07T01:12:06;29.52;;;11.48;;
23680;SDS011;62915;50.832;4.462;2023-02-07T01:14:32;26.70;;;12.52;;
23680;SDS011;62915;50.832;4.462;2023-02-07T01:16:57;25.15;;;11.40;;
23680;SDS011;62915;50.832;4.462;2023-02-07T01:19:23;26.05;;;11.23;;
23680;SDS011;62915;50.832;4.462;2023-02-07T01:21:49;20.50;;;11.23;;
23680;SDS011;62915;50.832;4.462;2023-02-07T01:24:15;21.20;;;11.38;;
23680;SDS011;62915;50.832;4.462;2023-02-07T01:26:41;25.17;;;12.02;;
23680;SDS011;62915;50.832;4.462;2023-02-07T01:29:07;29.80;;;11.15;;
23680;SDS011;62915;50.832;4.462;2023-02-07T01:31:34;28.55;;;12.52;;
23680;SDS011;62915;50.832;4.462;2023-02-07T01:34:01;28.52;;;12.73;;
23680;SDS011;62915;50.832;4.462;2023-02-07T01:36:27;33.22;;;12.45;;
23680;SDS011;62915;50.832;4.462;2023-02-07T01:38:53;34.00;;;12.48;;
23680;SDS011;62915;50.832;4.462;2023-02-07T01:41:21;21.92;;;12.15;;
23680;SDS011;62915;50.832;4.462;2023-02-07T01:43:56;26.25;;;13.10;;
23680;SDS011;62915;50.832;4.462;2023-02-07T01:46:51;26.90;;;12.75;;
23680;SDS011;62915;50.832;4.462;2023-02-07T01:49:29;28.92;;;12.25;;
23680;SDS011;62915;50.832;4.462;2023-02-07T01:52:02;27.25;;;12.23;;
23680;SDS011;62915;50.832;4.462;2023-02-07T01:54:33;27.98;;;13.00;;
23680;SDS011;62915;50.832;4.462;2023-02-07T01:57:05;23.80;;;13.27;;
23680;SDS011;62915;50.832;4.462;2023-02-07T01:59:34;29.65;;;13.38;;
23680;SDS011;62915;50.832;4.462;2023-02-07T02:02:02;28.08;;;13.45;;
23680;SDS011;62915;50.832;4.462;2023-02-07T02:04:29;26.45;;;12.05;;
23680;SDS011;62915;50.832;4.462;2023-02-07T02:06:56;29.90;;;13.23;;
23680;SDS011;62915;50.832;4.462;2023-02-07T02:09:22;27.55;;;13.30;;
23680;SDS011;62915;50.832;4.462;2023-02-07T02:18:12;27.80;;;14.32;;
23680;SDS011;62915;50.832;4.462;2023-02-07T02:23:37;32.55;;;14.30;;
23680;SDS011;62915;50.832;4.462;2023-02-07T02:26:16;30.67;;;14.57;;
23680;SDS011;62915;50.832;4.462;2023-02-07T02:34:31;31.45;;;14.93;;
23680;SDS011;62915;50.832;4.462;2023-02-07T02:40:05;34.13;;;15.38;;
23680;SDS011;62915;50.832;4.462;2023-02-07T02:42:55;27.95;;;15.98;;
23680;SDS011;62915;50.832;4.462;2023-02-07T02:47:57;31.60;;;15.95;;
23680;SDS011;62915;50.832;4.462;2023-02-07T02:50:28;37.42;;;14.93;;
23680;SDS011;62915;50.832;4.462;2023-02-07T02:52:55;32.45;;;15.43;;
23680;SDS011;62915;50.832;4.462;2023-02-07T02:55:27;30.20;;;15.43;;
23680;SDS011;62915;50.832;4.462;2023-02-07T02:58:24;27.00;;;14.45;;
23680;SDS011;62915;50.832;4.462;2023-02-07T03:12:57;33.15;;;15.18;;
23680;SDS011;62915;50.832;4.462;2023-02-07T03:18:42;27.60;;;14.93;;
23680;SDS011;62915;50.832;4.462;2023-02-07T03:23:44;33.97;;;15.80;;
23680;SDS011;62915;50.832;4.462;2023-02-07T03:26:12;34.85;;;16.05;;
23680;SDS011;62915;50.832;4.462;2023-02-07T03:28:38;26.90;;;14.63;;
23680;SDS011;62915;50.832;4.462;2023-02-07T03:31:06;33.58;;;16.25;;
23680;SDS011;62915;50.832;4.462;2023-02-07T03:33:36;38.75;;;15.90;;
23680;SDS011;62915;50.832;4.462;2023-02-07T03:38:38;37.72;;;16.80;;
23680;SDS011;62915;50.832;4.462;2023-02-07T03:41:05;35.10;;;16.92;;
23680;SDS011;62915;50.832;4.462;2023-02-07T03:43:35;31.80;;;17.02;;
23680;SDS011;62915;50.832;4.462;2023-02-07T03:46:06;38.72;;;17.13;;
23680;SDS011;62915;50.832;4.462;2023-02-07T03:48:33;37.83;;;16.52;;
23680;SDS011;62915;50.832;4.462;2023-02-07T03:50:59;37.00;;;16.35;;
23680;SDS011;62915;50.832;4.462;2023-02-07T03:53:24;34.33;;;16.45;;
23680;SDS011;62915;50.832;4.462;2023-02-07T03:55:51;30.85;;;15.13;;
23680;SDS011;62915;50.832;4.462;2023-02-07T03:58:17;35.55;;;17.10;;
23680;SDS011;62915;50.832;4.462;2023-02-07T04:00:43;36.83;;;17.23;;
23680;SDS011;62915;50.832;4.462;2023-02-07T04:03:09;38.38;;;17.38;;
23680;SDS011;62915;50.832;4.462;2023-02-07T04:05:35;39.45;;;17.88;;
23680;SDS011;62915;50.832;4.462;2023-02-07T04:08:01;35.10;;;16.83;;
23680;SDS011;62915;50.832;4.462;2023-02-07T04:10:27;34.83;;;16.58;;
23680;SDS011;62915;50.832;4.462;2023-02-07T04:12:53;34.33;;;15.82;;
23680;SDS011;62915;50.832;4.462;2023-02-07T04:15:18;29.75;;;16.48;;
23680;SDS011;62915;50.832;4.462;2023-02-07T04:17:44;26.48;;;15.35;;
23680;SDS011;62915;50.832;4.462;2023-02-07T04:20:10;29.92;;;15.27;;
23680;SDS011;62915;50.832;4.462;2023-02-07T04:22:36;32.97;;;14.85;;
23680;SDS011;62915;50.832;4.462;2023-02-07T04:25:02;29.70;;;16.42;;
23680;SDS011;62915;50.832;4.462;2023-02-07T04:27:28;33.28;;;15.48;;
23680;SDS011;62915;50.832;4.462;2023-02-07T04:29:53;27.33;;;15.30;;
23680;SDS011;62915;50.832;4.462;2023-02-07T04:32:20;32.15;;;15.35;;
23680;SDS011;62915;50.832;4.462;2023-02-07T04:34:46;33.90;;;16.02;;
23680;SDS011;62915;50.832;4.462;2023-02-07T04:37:11;36.08;;;15.50;;
23680;SDS011;62915;50.832;4.462;2023-02-07T04:39:38;34.20;;;15.75;;
23680;SDS011;62915;50.832;4.462;2023-02-07T04:42:03;26.52;;;14.20;;
23680;SDS011;62915;50.832;4.462;2023-02-07T04:44:29;32.05;;;16.15;;
23680;SDS011;62915;50.832;4.462;2023-02-07T04:46:55;32.75;;;14.55;;
23680;SDS011;62915;50.832;4.462;2023-02-07T04:49:21;32.97;;;16.00;;
23680;SDS011;62915;50.832;4.462;2023-02-07T04:51:46;32.60;;;15.77;;
23680;SDS011;62915;50.832;4.462;2023-02-07T04:54:12;29.27;;;15.45;;
23680;SDS011;62915;50.832;4.462;2023-02-07T04:56:38;32.90;;;16.50;;
23680;SDS011;62915;50.832;4.462;2023-02-07T04:59:04;36.83;;;15.40;;
23680;SDS011;62915;50.832;4.462;2023-02-07T05:01:29;37.75;;;15.18;;
23680;SDS011;62915;50.832;4.462;2023-02-07T05:03:55;35.63;;;14.00;;
23680;SDS011;62915;50.832;4.462;2023-02-07T05:06:21;28.30;;;15.63;;
23680;SDS011;62915;50.832;4.462;2023-02-07T05:08:47;33.30;;;15.38;;
23680;SDS011;62915;50.832;4.462;2023-02-07T05:11:12;37.15;;;15.65;;
23680;SDS011;62915;50.832;4.462;2023-02-07T05:13:38;31.88;;;15.57;;
23680;SDS011;62915;50.832;4.462;2023-02-07T05:16:04;34.70;;;15.95;;
23680;SDS011;62915;50.832;4.462;2023-02-07T05:18:30;30.23;;;15.30;;
23680;SDS011;62915;50.832;4.462;2023-02-07T05:20:56;33.75;;;15.05;;
23680;SDS011;62915;50.832;4.462;2023-02-07T05:23:22;36.13;;;16.20;;
23680;SDS011;62915;50.832;4.462;2023-02-07T05:25:48;31.17;;;15.18;;
23680;SDS011;62915;50.832;4.462;2023-02-07T05:28:14;33.28;;;16.13;;
23680;SDS011;62915;50.832;4.462;2023-02-07T05:30:40;32.30;;;15.70;;
23680;SDS011;62915;50.832;4.462;2023-02-07T05:33:06;31.25;;;15.07;;
23680;SDS011;62915;50.832;4.462;2023-02-07T05:35:33;33.03;;;15.88;;
23680;SDS011;62915;50.832;4.462;2023-02-07T05:38:01;31.38;;;14.68;;
23680;SDS011;62915;50.832;4.462;2023-02-07T05:40:31;28.40;;;14.77;;
23680;SDS011;62915;50.832;4.462;2023-02-07T05:42:56;34.10;;;14.93;;
23680;SDS011;62915;50.832;4.462;2023-02-07T05:45:22;34.78;;;15.45;;
23680;SDS011;62915;50.832;4.462;2023-02-07T05:47:48;29.35;;;15.52;;
23680;SDS011;62915;50.832;4.462;2023-02-07T05:50:14;36.25;;;16.10;;
23680;SDS011;62915;50.832;4.462;2023-02-07T05:52:40;33.45;;;16.23;;
23680;SDS011;62915;50.832;4.462;2023-02-07T05:55:05;30.52;;;14.85;;
23680;SDS011;62915;50.832;4.462;2023-02-07T05:57:32;32.88;;;15.85;;
23680;SDS011;62915;50.832;4.462;2023-02-07T05:59:57;31.40;;;15.48;;
23680;SDS011;62915;50.832;4.462;2023-02-07T06:02:23;39.40;;;15.65;;
23680;SDS011;62915;50.832;4.462;2023-02-07T06:04:49;36.20;;;15.35;;
23680;SDS011;62915;50.832;4.462;2023-02-07T06:07:14;27.80;;;15.25;;
23680;SDS011;62915;50.832;4.462;2023-02-07T06:09:40;30.58;;;16.33;;
23680;SDS011;62915;50.832;4.462;2023-02-07T06:12:06;32.58;;;16.35;;
23680;SDS011;62915;50.832;4.462;2023-02-07T06:14:32;33.17;;;15.18;;
23680;SDS011;62915;50.832;4.462;2023-02-07T06:16:58;37.47;;;15.80;;
23680;SDS011;62915;50.832;4.462;2023-02-07T06:19:23;37.80;;;16.15;;
23680;SDS011;62915;50.832;4.462;2023-02-07T06:21:49;30.05;;;15.82;;
23680;SDS011;62915;50.832;4.462;2023-02-07T06:24:15;30.40;;;16.70;;
23680;SDS011;62915;50.832;4.462;2023-02-07T06:26:41;28.33;;;15.13;;
23680;SDS011;62915;50.832;4.462;2023-02-07T06:29:07;34.85;;;16.00;;
23680;SDS011;62915;50.832;4.462;2023-02-07T06:31:33;32.20;;;15.05;;
23680;SDS011;62915;50.832;4.462;2023-02-07T06:33:59;32.28;;;15.45;;
23680;SDS011;62915;50.832;4.462;2023-02-07T06:36:24;26.60;;;14.10;;
23680;SDS011;62915;50.832;4.462;2023-02-07T06:38:50;28.60;;;15.07;;
23680;SDS011;62915;50.832;4.462;2023-02-07T06:41:20;30.20;;;15.55;;
23680;SDS011;62915;50.832;4.462;2023-02-07T06:43:46;34.13;;;15.57;;
23680;SDS011;62915;50.832;4.462;2023-02-07T06:46:12;27.23;;;14.73;;
23680;SDS011;62915;50.832;4.462;2023-02-07T06:48:38;35.33;;;15.57;;
23680;SDS011;62915;50.832;4.462;2023-02-07T06:51:04;33.30;;;16.48;;
23680;SDS011;62915;50.832;4.462;2023-02-07T06:53:30;28.58;;;15.02;;
23680;SDS011;62915;50.832;4.462;2023-02-07T06:55:56;32.65;;;15.30;;
23680;SDS011;62915;50.832;4.462;2023-02-07T06:58:21;29.83;;;15.38;;
23680;SDS011;62915;50.832;4.462;2023-02-07T07:00:47;29.70;;;15.45;;
23680;SDS011;62915;50.832;4.462;2023-02-07T07:03:13;34.05;;;14.88;;
23680;SDS011;62915;50.832;4.462;2023-02-07T07:05:41;35.13;;;15.52;;
23680;SDS011;62915;50.832;4.462;2023-02-07T07:08:11;35.78;;;15.27;;
23680;SDS011;62915;50.832;4.462;2023-02-07T07:10:42;30.50;;;15.23;;
23680;SDS011;62915;50.832;4.462;2023-02-07T07:13:09;35.85;;;15.90;;
23680;SDS011;62915;50.832;4.462;2023-02-07T07:15:35;35.28;;;17.33;;
23680;SDS011;62915;50.832;4.462;2023-02-07T07:18:00;34.05;;;16.90;;
23680;SDS011;62915;50.832;4.462;2023-02-07T07:20:26;34.28;;;16.23;;
23680;SDS011;62915;50.832;4.462;2023-02-07T07:22:52;28.98;;;15.57;;
23680;SDS011;62915;50.832;4.462;2023-02-07T07:25:17;32.00;;;16.52;;
23680;SDS011;62915;50.832;4.462;2023-02-07T07:27:44;36.45;;;17.67;;
23680;SDS011;62915;50.832;4.462;2023-02-07T07:30:10;32.53;;;18.15;;
23680;SDS011;62915;50.832;4.462;2023-02-07T07:32:36;28.73;;;15.63;;
23680;SDS011;62915;50.832;4.462;2023-02-07T07:35:02;31.70;;;17.00;;
23680;SDS011;62915;50.832;4.462;2023-02-07T07:37:29;32.53;;;17.00;;
23680;SDS011;62915;50.832;4.462;2023-02-07T07:39:55;36.40;;;17.98;;
23680;SDS011;62915;50.832;4.462;2023-02-07T07:42:20;38.20;;;18.17;;
23680;SDS011;62915;50.832;4.462;2023-02-07T07:44:46;34.67;;;17.00;;
23680;SDS011;62915;50.832;4.462;2023-02-07T07:47:12;34.15;;;16.27;;
23680;SDS011;62915;50.832;4.462;2023-02-07T07:49:38;33.95;;;16.92;;
23680;SDS011;62915;50.832;4.462;2023-02-07T07:52:04;27.40;;;15.13;;
23680;SDS011;62915;50.832;4.462;2023-02-07T07:54:30;32.97;;;16.63;;
23680;SDS011;62915;50.832;4.462;2023-02-07T07:56:55;42.08;;;17.00;;
23680;SDS011;62915;50.832;4.462;2023-02-07T07:59:21;37.22;;;18.00;;
23680;SDS011;62915;50.832;4.462;2023-02-07T08:01:47;35.63;;;16.95;;
23680;SDS011;62915;50.832;4.462;2023-02-07T08:04:13;39.35;;;17.05;;
23680;SDS011;62915;50.832;4.462;2023-02-07T08:06:38;33.95;;;17.67;;
23680;SDS011;62915;50.832;4.462;2023-02-07T08:09:04;43.25;;;18.77;;
23680;SDS011;62915;50.832;4.462;2023-02-07T08:11:30;36.28;;;18.05;;
23680;SDS011;62915;50.832;4.462;2023-02-07T08:13:56;38.78;;;17.70;;
23680;SDS011;62915;50.832;4.462;2023-02-07T08:16:21;38.45;;;19.13;;
23680;SDS011;62915;50.832;4.462;2023-02-07T08:18:47;34.47;;;18.50;;
23680;SDS011;62915;50.832;4.462;2023-02-07T08:21:13;35.85;;;17.15;;
23680;SDS011;62915;50.832;4.462;2023-02-07T08:23:38;37.83;;;18.38;;
23680;SDS011;62915;50.832;4.462;2023-02-07T08:26:04;35.15;;;18.75;;
23680;SDS011;62915;50.832;4.462;2023-02-07T08:28:31;33.00;;;18.38;;
23680;SDS011;62915;50.832;4.462;2023-02-07T08:31:01;39.55;;;18.58;;
23680;SDS011;62915;50.832;4.462;2023-02-07T08:33:28;43.22;;;20.45;;
23680;SDS011;62915;50.832;4.462;2023-02-07T08:35:54;46.05;;;20.15;;
23680;SDS011;62915;50.832;4.462;2023-02-07T08:38:20;45.67;;;20.50;;
23680;SDS011;62915;50.832;4.462;2023-02-07T08:40:46;42.30;;;21.10;;
23680;SDS011;62915;50.832;4.462;2023-02-07T08:43:12;40.58;;;19.85;;
23680;SDS011;62915;50.832;4.462;2023-02-07T08:45:39;44.28;;;20.05;;
23680;SDS011;62915;50.832;4.462;2023-02-07T08:48:11;41.17;;;19.08;;
23680;SDS011;62915;50.832;4.462;2023-02-07T08:50:38;47.88;;;20.35;;
23680;SDS011;62915;50.832;4.462;2023-02-07T08:53:03;44.75;;;20.48;;
23680;SDS011;62915;50.832;4.462;2023-02-07T08:55:29;36.35;;;19.08;;
23680;SDS011;62915;50.832;4.462;2023-02-07T08:57:55;38.65;;;19.15;;
23680;SDS011;62915;50.832;4.462;2023-02-07T09:00:21;43.05;;;19.60;;
23680;SDS011;62915;50.832;4.462;2023-02-07T09:02:47;37.83;;;19.58;;
23680;SDS011;62915;50.832;4.462;2023-02-07T09:05:13;36.88;;;18.88;;
23680;SDS011;62915;50.832;4.462;2023-02-07T09:07:39;36.13;;;18.67;;
23680;SDS011;62915;50.832;4.462;2023-02-07T09:10:05;39.88;;;19.77;;
23680;SDS011;62915;50.832;4.462;2023-02-07T09:12:33;47.13;;;19.23;;
23680;SDS011;62915;50.832;4.462;2023-02-07T09:14:59;38.97;;;19.25;;
23680;SDS011;62915;50.832;4.462;2023-02-07T09:17:25;41.33;;;18.38;;
23680;SDS011;62915;50.832;4.462;2023-02-07T09:19:50;33.60;;;17.65;;
23680;SDS011;62915;50.832;4.462;2023-02-07T09:22:16;35.72;;;17.05;;
23680;SDS011;62915;50.832;4.462;2023-02-07T09:24:42;31.60;;;15.65;;
23680;SDS011;62915;50.832;4.462;2023-02-07T09:27:08;30.00;;;14.77;;
23680;SDS011;62915;50.832;4.462;2023-02-07T09:29:34;34.65;;;15.73;;
23680;SDS011;62915;50.832;4.462;2023-02-07T09:32:00;27.77;;;15.23;;
23680;SDS011;62915;50.832;4.462;2023-02-07T09:34:26;35.40;;;15.75;;
23680;SDS011;62915;50.832;4.462;2023-02-07T09:36:52;30.20;;;14.73;;
23680;SDS011;62915;50.832;4.462;2023-02-07T09:39:18;25.60;;;13.40;;
23680;SDS011;62915;50.832;4.462;2023-02-07T09:52:08;19.92;;;12.65;;
23680;SDS011;62915;50.832;4.462;2023-02-07T09:54:44;22.25;;;12.52;;
23680;SDS011;62915;50.832;4.462;2023-02-07T09:57:20;19.58;;;11.85;;
23680;SDS011;62915;50.832;4.462;2023-02-07T10:00:03;22.65;;;11.73;;
23680;SDS011;62915;50.832;4.462;2023-02-07T10:05:15;21.77;;;10.88;;
23680;SDS011;62915;50.832;4.462;2023-02-07T10:07:47;21.92;;;11.57;;
23680;SDS011;62915;50.832;4.462;2023-02-07T10:10:18;18.65;;;10.68;;
23680;SDS011;62915;50.832;4.462;2023-02-07T10:13:08;18.77;;;11.55;;
23680;SDS011;62915;50.832;4.462;2023-02-07T10:15:41;22.13;;;10.52;;
23680;SDS011;62915;50.832;4.462;2023-02-07T10:18:45;18.17;;;10.40;;
23680;SDS011;62915;50.832;4.462;2023-02-07T10:21:39;22.63;;;9.98;;
23680;SDS011;62915;50.832;4.462;2023-02-07T10:24:30;16.60;;;8.75;;
23680;SDS011;62915;50.832;4.462;2023-02-07T10:29:47;16.27;;;8.52;;
23680;SDS011;62915;50.832;4.462;2023-02-07T10:32:21;15.18;;;8.75;;
23680;SDS011;62915;50.832;4.462;2023-02-07T10:34:55;16.00;;;9.65;;
23680;SDS011;62915;50.832;4.462;2023-02-07T10:37:55;16.10;;;8.77;;
23680;SDS011;62915;50.832;4.462;2023-02-07T10:45:55;14.68;;;8.77;;
23680;SDS011;62915;50.832;4.462;2023-02-07T10:48:26;11.73;;;8.43;;
23680;SDS011;62915;50.832;4.462;2023-02-07T10:50:52;13.95;;;7.80;;
23680;SDS011;62915;50.832;4.462;2023-02-07T10:56:18;11.18;;;7.60;;
23680;SDS011;62915;50.832;4.462;2023-02-07T10:58:50;11.93;;;7.78;;
23680;SDS011;62915;50.832;4.462;2023-02-07T11:01:17;11.95;;;7.18;;
23680;SDS011;62915;50.832;4.462;2023-02-07T11:03:48;11.80;;;8.13;;
23680;SDS011;62915;50.832;4.462;2023-02-07T11:06:15;11.50;;;8.00;;
23680;SDS011;62915;50.832;4.462;2023-02-07T11:11:29;10.88;;;7.40;;
23680;SDS011;62915;50.832;4.462;2023-02-07T11:14:01;15.10;;;8.02;;
23680;SDS011;62915;50.832;4.462;2023-02-07T11:16:28;10.75;;;6.43;;
23680;SDS011;62915;50.832;4.462;2023-02-07T11:18:59;10.93;;;6.53;;
23680;SDS011;62915;50.832;4.462;2023-02-07T11:21:33;10.25;;;6.65;;
23680;SDS011;62915;50.832;4.462;2023-02-07T11:24:11;7.63;;;5.38;;
23680;SDS011;62915;50.832;4.462;2023-02-07T11:26:40;6.82;;;4.40;;
23680;SDS011;62915;50.832;4.462;2023-02-07T11:29:19;7.75;;;4.80;;
23680;SDS011;62915;50.832;4.462;2023-02-07T11:31:46;5.88;;;4.50;;
23680;SDS011;62915;50.832;4.462;2023-02-07T11:37:17;8.05;;;5.00;;
23680;SDS011;62915;50.832;4.462;2023-02-07T11:39:52;8.70;;;5.50;;
23680;SDS011;62915;50.832;4.462;2023-02-07T11:42:21;9.75;;;5.45;;
23680;SDS011;62915;50.832;4.462;2023-02-07T11:44:49;7.97;;;5.32;;
23680;SDS011;62915;50.832;4.462;2023-02-07T11:47:17;8.13;;;4.95;;
23680;SDS011;62915;50.832;4.462;2023-02-07T11:50:02;9.00;;;5.93;;
23680;SDS011;62915;50.832;4.462;2023-02-07T11:52:31;8.32;;;4.82;;
23680;SDS011;62915;50.832;4.462;2023-02-07T11:55:02;6.60;;;4.93;;
23680;SDS011;62915;50.832;4.462;2023-02-07T11:57:32;8.73;;;5.32;;
23680;SDS011;62915;50.832;4.462;2023-02-07T12:00:14;9.15;;;6.05;;
23680;SDS011;62915;50.832;4.462;2023-02-07T12:03:00;8.15;;;6.05;;
23680;SDS011;62915;50.832;4.462;2023-02-07T12:05:29;8.98;;;6.45;;
23680;SDS011;62915;50.832;4.462;2023-02-07T12:08:00;7.70;;;5.80;;
23680;SDS011;62915;50.832;4.462;2023-02-07T12:10:38;10.48;;;6.57;;
23680;SDS011;62915;50.832;4.462;2023-02-07T12:13:11;12.40;;;6.68;;
23680;SDS011;62915;50.832;4.462;2023-02-07T12:15:50;11.75;;;6.88;;
23680;SDS011;62915;50.832;4.462;2023-02-07T12:25:55;14.05;;;7.00;;
23680;SDS011;62915;50.832;4.462;2023-02-07T12:34:00;7.93;;;5.20;;
23680;SDS011;62915;50.832;4.462;2023-02-07T12:36:38;11.77;;;5.30;;
23680;SDS011;62915;50.832;4.462;2023-02-07T12:39:33;9.50;;;5.30;;
23680;SDS011;62915;50.832;4.462;2023-02-07T12:45:05;8.48;;;5.38;;
23680;SDS011;62915;50.832;4.462;2023-02-07T12:56:00;8.57;;;6.10;;
23680;SDS011;62915;50.832;4.462;2023-02-07T12:58:35;8.63;;;5.68;;
23680;SDS011;62915;50.832;4.462;2023-02-07T13:04:31;15.25;;;5.88;;
23680;SDS011;62915;50.832;4.462;2023-02-07T13:07:18;7.82;;;5.03;;
23680;SDS011;62915;50.832;4.462;2023-02-07T13:18:49;9.75;;;5.22;;
23680;SDS011;62915;50.832;4.462;2023-02-07T13:24:16;7.65;;;5.03;;
23680;SDS011;62915;50.832;4.462;2023-02-07T13:26:47;8.02;;;5.20;;
23680;SDS011;62915;50.832;4.462;2023-02-07T13:29:16;9.35;;;4.72;;
23680;SDS011;62915;50.832;4.462;2023-02-07T13:31:45;9.82;;;4.65;;
23680;SDS011;62915;50.832;4.462;2023-02-07T13:34:16;6.18;;;4.80;;
23680;SDS011;62915;50.832;4.462;2023-02-07T13:36:50;6.90;;;5.05;;
23680;SDS011;62915;50.832;4.462;2023-02-07T13:47:35;15.65;;;5.97;;
23680;SDS011;62915;50.832;4.462;2023-02-07T13:56:33;7.70;;;5.68;;
23680;SDS011;62915;50.832;4.462;2023-02-07T13:59:32;11.15;;;7.15;;
23680;SDS011;62915;50.832;4.462;2023-02-07T14:02:16;11.55;;;7.28;;
23680;SDS011;62915;50.832;4.462;2023-02-07T14:07:18;14.55;;;8.05;;
23680;SDS011;62915;50.832;4.462;2023-02-07T14:09:49;13.55;;;7.38;;
23680;SDS011;62915;50.832;4.462;2023-02-07T14:12:18;14.57;;;7.28;;
23680;SDS011;62915;50.832;4.462;2023-02-07T14:14:47;8.40;;;6.30;;
23680;SDS011;62915;50.832;4.462;2023-02-07T14:17:14;10.43;;;7.28;;
23680;SDS011;62915;50.832;4.462;2023-02-07T14:31:48;10.65;;;6.32;;
23680;SDS011;62915;50.832;4.462;2023-02-07T14:34:17;11.55;;;6.97;;
23680;SDS011;62915;50.832;4.462;2023-02-07T14:36:48;12.50;;;6.75;;
23680;SDS011;62915;50.832;4.462;2023-02-07T14:41:48;14.23;;;7.38;;
23680;SDS011;62915;50.832;4.462;2023-02-07T14:44:23;9.27;;;6.60;;
23680;SDS011;62915;50.832;4.462;2023-02-07T14:46:53;9.70;;;6.75;;
23680;SDS011;62915;50.832;4.462;2023-02-07T14:52:21;8.82;;;6.20;;
23680;SDS011;62915;50.832;4.462;2023-02-07T14:54:52;12.70;;;7.15;;
23680;SDS011;62915;50.832;4.462;2023-02-07T15:03:17;9.13;;;6.45;;
23680;SDS011;62915;50.832;4.462;2023-02-07T15:05:49;13.00;;;6.72;;
23680;SDS011;62915;50.832;4.462;2023-02-07T15:08:17;12.48;;;6.50;;
23680;SDS011;62915;50.832;4.462;2023-02-07T15:10:50;10.20;;;6.50;;
23680;SDS011;62915;50.832;4.462;2023-02-07T15:13:38;10.35;;;6.35;;
23680;SDS011;62915;50.832;4.462;2023-02-07T15:16:20;9.38;;;6.15;;
23680;SDS011;62915;50.832;4.462;2023-02-07T15:21:56;9.45;;;5.72;;
23680;SDS011;62915;50.832;4.462;2023-02-07T15:27:02;8.25;;;5.85;;
23680;SDS011;62915;50.832;4.462;2023-02-07T15:29:30;9.25;;;5.88;;
23680;SDS011;62915;50.832;4.462;2023-02-07T15:31:58;8.98;;;5.85;;
23680;SDS011;62915;50.832;4.462;2023-02-07T15:34:25;10.63;;;6.18;;
23680;SDS011;62915;50.832;4.462;2023-02-07T15:36:57;10.32;;;6.13;;
23680;SDS011;62915;50.832;4.462;2023-02-07T15:39:26;10.05;;;5.80;;
23680;SDS011;62915;50.832;4.462;2023-02-07T15:41:54;9.02;;;5.82;;
23680;SDS011;62915;50.832;4.462;2023-02-07T15:44:27;8.73;;;6.00;;
23680;SDS011;62915;50.832;4.462;2023-02-07T15:46:58;9.93;;;6.13;;
23680;SDS011;62915;50.832;4.462;2023-02-07T15:51:56;8.68;;;6.07;;
23680;SDS011;62915;50.832;4.462;2023-02-07T15:54:30;8.80;;;6.05;;
23680;SDS011;62915;50.832;4.462;2023-02-07T15:57:02;10.80;;;6.72;;
23680;SDS011;62915;50.832;4.462;2023-02-07T15:59:29;10.57;;;5.45;;
23680;SDS011;62915;50.832;4.462;2023-02-07T16:01:56;8.98;;;6.00;;
23680;SDS011;62915;50.832;4.462;2023-02-07T16:04:24;10.10;;;5.70;;
23680;SDS011;62915;50.832;4.462;2023-02-07T16:07:15;8.05;;;5.60;;
23680;SDS011;62915;50.832;4.462;2023-02-07T16:09:42;8.52;;;5.43;;
23680;SDS011;62915;50.832;4.462;2023-02-07T16:15:19;11.57;;;5.97;;
23680;SDS011;62915;50.832;4.462;2023-02-07T16:17:48;10.00;;;5.35;;
23680;SDS011;62915;50.832;4.462;2023-02-07T16:20:14;7.25;;;5.63;;
23680;SDS011;62915;50.832;4.462;2023-02-07T16:22:40;10.02;;;5.32;;
23680;SDS011;62915;50.832;4.462;2023-02-07T16:25:12;11.95;;;6.18;;
23680;SDS011;62915;50.832;4.462;2023-02-07T16:30:39;11.00;;;5.60;;
23680;SDS011;62915;50.832;4.462;2023-02-07T16:33:05;8.05;;;5.20;;
23680;SDS011;62915;50.832;4.462;2023-02-07T16:35:33;8.90;;;5.72;;
23680;SDS011;62915;50.832;4.462;2023-02-07T16:40:27;7.85;;;5.45;;
23680;SDS011;62915;50.832;4.462;2023-02-07T16:42:53;10.15;;;5.30;;
23680;SDS011;62915;50.832;4.462;2023-02-07T16:45:24;12.52;;;5.93;;
23680;SDS011;62915;50.832;4.462;2023-02-07T16:47:51;9.20;;;5.47;;
23680;SDS011;62915;50.832;4.462;2023-02-07T16:50:18;8.80;;;5.95;;
23680;SDS011;62915;50.832;4.462;2023-02-07T16:52:46;9.05;;;5.40;;
23680;SDS011;62915;50.832;4.462;2023-02-07T16:55:13;9.57;;;5.78;;
23680;SDS011;62915;50.832;4.462;2023-02-07T16:57:40;8.75;;;5.70;;
23680;SDS011;62915;50.832;4.462;2023-02-07T17:00:08;8.68;;;5.65;;
23680;SDS011;62915;50.832;4.462;2023-02-07T17:02:37;10.55;;;5.93;;
23680;SDS011;62915;50.832;4.462;2023-02-07T17:05:03;8.45;;;5.43;;
23680;SDS011;62915;50.832;4.462;2023-02-07T17:07:29;11.07;;;6.25;;
23680;SDS011;62915;50.832;4.462;2023-02-07T17:09:55;7.93;;;4.85;;
23680;SDS011;62915;50.832;4.462;2023-02-07T17:12:22;9.52;;;5.22;;
23680;SDS011;62915;50.832;4.462;2023-02-07T17:14:47;14.23;;;5.80;;
23680;SDS011;62915;50.832;4.462;2023-02-07T17:17:13;8.85;;;5.55;;
23680;SDS011;62915;50.832;4.462;2023-02-07T17:19:39;10.05;;;5.47;;
23680;SDS011;62915;50.832;4.462;2023-02-07T17:22:05;10.57;;;5.43;;
23680;SDS011;62915;50.832;4.462;2023-02-07T17:24:31;9.15;;;5.40;;
23680;SDS011;62915;50.832;4.462;2023-02-07T17:26:57;18.95;;;8.68;;